Time;durP1;ratioP1;P1;durP2;ratioP2;P2;SDS_P1;SDS_P2;PMS_P1;PMS_P2;Temp;Humidity;BMP_temperature;BMP_pressure;BME280_temperature;BME280_humidity;BME280_pressure;Samples;Min_cycle;Max_cycle;Signal;HPM_P1;HPM_P2
2023/07/27 00:01:21;;;;;;;38.28;34.92;;;17.20;99.90;;;;;;4967025;28;20043;-87
2023/07/27 00:03:46;;;;;;;38.08;34.75;;;16.90;99.90;;;;;;4953962;28;20493;-86
2023/07/27 00:06:12;;;;;;;38.65;35.35;;;16.80;99.90;;;;;;4958120;28;20047;-86
2023/07/27 00:08:38;;;;;;;38.95;35.75;;;16.80;91.40;;;;;;4952111;28;20042;-86
2023/07/27 00:11:03;;;;;;;38.78;35.58;;;16.80;75.00;;;;;;4967893;28;20542;-86
2023/07/27 00:13:29;;;;;;;38.05;34.70;;;17.80;51.40;;;;;;4942056;29;20039;-86
2023/07/27 00:15:54;;;;;;;39.08;35.30;;;16.90;29.40;;;;;;4940341;28;20035;-86
2023/07/27 00:18:20;;;;;;;39.17;35.78;;;16.90;14.30;;;;;;4955573;28;20085;-87
2023/07/27 00:20:45;;;;;;;39.58;35.97;;;17.30;3.90;;;;;;4971431;28;20046;-86
2023/07/27 00:23:11;;;;;;;38.70;35.58;;;17.20;1.00;;;;;;4954347;28;20039;-86
2023/07/27 00:25:36;;;;;;;41.55;37.95;;;16.80;1.00;;;;;;4952520;29;20027;-86
2023/07/27 00:28:02;;;;;;;41.28;37.88;;;17.10;1.00;;;;;;4951252;29;20035;-87
2023/07/27 00:30:28;;;;;;;41.88;38.22;;;16.80;1.00;;;;;;4950170;28;20396;-86
2023/07/27 00:32:53;;;;;;;40.42;37.08;;;16.60;1.00;;;;;;4954959;28;20045;-86
2023/07/27 00:35:19;;;;;;;42.17;38.40;;;17.10;1.40;;;;;;4953142;28;20050;-87
2023/07/27 00:37:44;;;;;;;41.85;38.25;;;17.10;25.40;;;;;;4966856;28;20729;-86
2023/07/27 00:40:10;;;;;;;43.33;39.42;;;16.60;57.20;;;;;;4937353;29;20505;-87
2023/07/27 00:42:36;;;;;;;40.63;37.28;;;16.70;89.50;;;;;;4940798;28;20038;-87
2023/07/27 00:45:02;;;;;;;41.17;37.65;;;17.40;99.90;;;;;;4947198;28;20262;-86
2023/07/27 00:47:27;;;;;;;41.40;37.80;;;16.80;99.90;;;;;;4953899;28;20043;-86
2023/07/27 00:49:53;;;;;;;41.15;37.50;;;16.60;99.90;;;;;;4950222;28;20045;-86
2023/07/27 00:52:18;;;;;;;40.05;36.45;;;16.70;99.90;;;;;;4968502;28;20042;-86
2023/07/27 00:54:44;;;;;;;41.25;37.72;;;16.80;99.90;;;;;;4952776;28;20078;-86
2023/07/27 00:57:10;;;;;;;41.55;38.05;;;16.90;99.90;;;;;;4954310;28;20043;-86
2023/07/27 00:59:38;;;;;;;38.78;35.63;;;18.10;99.90;;;;;;4963838;28;20039;-86
2023/07/27 01:02:04;;;;;;;38.20;34.95;;;16.70;99.90;;;;;;4955704;28;20074;-86
2023/07/27 01:04:29;;;;;;;36.97;33.85;;;16.70;99.90;;;;;;4941670;28;20074;-86
2023/07/27 01:06:55;;;;;;;36.15;33.10;;;16.80;99.90;;;;;;4969579;28;20046;-86
2023/07/27 01:09:21;;;;;;;37.40;34.22;;;16.80;99.90;;;;;;4955036;28;20078;-86
2023/07/27 01:12:03;;;;;;;36.85;33.65;;;16.90;99.90;;;;;;4966271;28;20501;-86
2023/07/27 01:15:07;;;;;;;37.88;34.80;;;16.80;72.30;;;;;;4958541;28;20070;-86
2023/07/27 01:17:44;;;;;;;38.28;34.63;;;16.80;6.30;;;;;;4936956;28;20476;-86
2023/07/27 01:20:46;;;;;;;38.67;35.33;;;16.90;1.00;;;;;;4941161;28;20089;-86
2023/07/27 01:23:48;;;;;;;39.25;35.88;;;16.80;1.00;;;;;;4953599;28;20051;-86
2023/07/27 01:26:29;;;;;;;39.63;36.05;;;16.90;1.00;;;;;;4940475;28;20039;-86
2023/07/27 01:29:32;;;;;;;40.45;36.95;;;17.60;1.00;;;;;;4957434;28;20090;-86
2023/07/27 01:31:59;;;;;;;39.90;36.50;;;16.90;1.00;;;;;;4955151;28;20047;-86
2023/07/27 01:34:31;;;;;;;38.08;34.85;;;17.30;1.00;;;;;;4941409;28;20121;-86
2023/07/27 01:37:02;;;;;;;39.40;36.10;;;16.90;1.00;;;;;;4960936;28;20066;-87
2023/07/27 01:39:30;;;;;;;39.47;35.88;;;17.00;3.80;;;;;;4951576;28;20049;-87
2023/07/27 01:41:56;;;;;;;40.67;37.25;;;17.20;19.00;;;;;;4952003;28;20047;-86
2023/07/27 01:44:25;;;;;;;40.65;36.97;;;17.50;22.00;;;;;;4965070;28;20296;-86
2023/07/27 01:46:54;;;;;;;40.85;37.25;;;16.90;42.90;;;;;;4963724;28;20047;-87
2023/07/27 01:49:22;;;;;;;40.50;37.00;;;17.00;80.60;;;;;;4960941;28;20415;-87
2023/07/27 01:51:49;;;;;;;42.42;38.72;;;16.90;99.90;;;;;;4946450;28;20134;-86
2023/07/27 01:54:16;;;;;;;42.28;38.55;;;17.00;99.90;;;;;;4941097;29;20035;-86
2023/07/27 01:56:42;;;;;;;42.33;38.65;;;16.90;99.90;;;;;;4962063;28;20082;-86
2023/07/27 01:59:09;;;;;;;42.92;39.13;;;16.90;99.90;;;;;;4944778;28;20086;-86
2023/07/27 02:01:37;;;;;;;43.03;39.33;;;16.80;99.90;;;;;;4954214;28;20066;-86
2023/07/27 02:04:04;;;;;;;43.30;39.50;;;17.40;99.90;;;;;;4948488;29;20047;-86
2023/07/27 02:06:29;;;;;;;44.22;40.13;;;16.90;1.00;;;;;;4944247;28;20291;-86
2023/07/27 02:08:55;;;;;;;44.33;40.33;;;16.90;1.00;;;;;;4954860;28;20039;-86
2023/07/27 02:11:23;;;;;;;44.50;40.67;;;17.00;1.00;;;;;;4956066;28;20038;-86
2023/07/27 02:14:11;;;;;;;43.25;39.65;;;17.00;82.30;;;;;;4955726;28;20118;-86
2023/07/27 02:16:49;;;;;;;43.63;39.80;;;17.20;99.90;;;;;;4960120;28;20098;-86
2023/07/27 02:19:17;;;;;;;45.72;41.15;;;17.50;99.90;;;;;;4946469;29;20042;-86
2023/07/27 02:21:45;;;;;;;43.50;39.70;;;17.10;99.90;;;;;;4950434;28;20465;-86
2023/07/27 02:24:11;;;;;;;43.08;39.15;;;17.10;1.00;;;;;;4951280;28;20046;-86
2023/07/27 02:26:36;;;;;;;41.38;37.60;;;17.50;5.50;;;;;;4935756;28;20044;-86
2023/07/27 02:29:02;;;;;;;41.90;38.20;;;17.30;99.90;;;;;;4953692;28;20051;-86
2023/07/27 02:31:28;;;;;;;41.97;38.40;;;17.80;99.90;;;;;;4947292;28;20097;-86
2023/07/27 02:33:53;;;;;;;41.83;37.80;;;17.70;99.90;;;;;;4952577;28;20049;-86
2023/07/27 02:36:19;;;;;;;42.45;38.38;;;17.40;99.90;;;;;;4950585;29;20035;-86
2023/07/27 02:38:44;;;;;;;42.42;38.70;;;17.60;99.90;;;;;;4955541;28;20070;-86
2023/07/27 02:41:10;;;;;;;43.53;39.72;;;18.00;1.00;;;;;;4951570;28;20038;-87
2023/07/27 02:43:37;;;;;;;44.30;40.30;;;17.70;1.00;;;;;;4969126;28;20042;-86
2023/07/27 02:46:04;;;;;;;44.90;40.30;;;17.90;99.90;;;;;;4961778;28;20043;-86
2023/07/27 02:48:29;;;;;;;44.47;40.38;;;17.70;99.90;;;;;;4950291;29;20489;-86
2023/07/27 02:50:55;;;;;;;43.80;39.63;;;17.50;99.90;;;;;;4957381;28;20169;-86
2023/07/27 02:53:21;;;;;;;44.00;40.00;;;17.80;1.00;;;;;;4968971;28;20038;-87
2023/07/27 02:56:00;;;;;;;44.25;40.38;;;17.50;1.00;;;;;;4959317;28;20031;-86
2023/07/27 02:58:26;;;;;;;44.05;39.78;;;17.70;99.90;;;;;;4969184;28;20046;-86
2023/07/27 03:00:58;;;;;;;44.63;40.15;;;17.50;99.90;;;;;;4955464;28;20049;-86
2023/07/27 03:03:23;;;;;;;43.35;39.45;;;17.80;1.00;;;;;;4954267;28;20066;-86
2023/07/27 03:05:56;;;;;;;44.15;39.80;;;18.00;99.90;;;;;;4952919;28;20160;-86
2023/07/27 03:08:22;;;;;;;43.88;39.78;;;18.30;99.90;;;;;;4956745;28;20049;-87
2023/07/27 03:10:48;;;;;;;44.25;40.25;;;18.20;1.00;;;;;;4956241;28;20046;-87
2023/07/27 03:13:13;;;;;;;44.58;40.55;;;17.50;47.60;;;;;;4962796;28;20054;-87
2023/07/27 03:15:40;;;;;;;44.38;40.08;;;17.90;99.90;;;;;;4959167;28;20039;-86
2023/07/27 03:18:06;;;;;;;41.58;37.83;;;17.60;99.90;;;;;;4956303;28;20071;-86
2023/07/27 03:20:42;;;;;;;43.30;39.20;;;17.80;1.00;;;;;;4957395;28;20575;-85
2023/07/27 03:23:09;;;;;;;42.55;38.42;;;19.00;99.90;;;;;;4969736;28;20046;-86
2023/07/27 03:25:36;;;;;;;40.65;36.97;;;18.20;99.90;;;;;;4952988;29;20047;-86
2023/07/27 03:28:02;;;;;;;40.50;36.40;;;18.20;1.00;;;;;;4955753;28;20158;-86
2023/07/27 03:30:28;;;;;;;40.00;36.13;;;17.70;1.00;;;;;;4953735;28;20047;-86
2023/07/27 03:32:54;;;;;;;39.35;35.45;;;18.00;99.90;;;;;;4967224;28;20050;-85
2023/07/27 03:35:19;;;;;;;39.88;36.13;;;17.80;99.90;;;;;;4956242;28;20042;-86
2023/07/27 03:37:45;;;;;;;39.50;35.70;;;17.80;99.90;;;;;;4938567;28;20450;-86
2023/07/27 03:40:10;;;;;;;38.38;34.88;;;17.80;99.90;;;;;;4961940;28;20039;-86
2023/07/27 03:42:36;;;;;;;38.95;35.33;;;18.60;99.90;;;;;;4948214;28;20185;-85
2023/07/27 03:45:02;;;;;;;37.53;33.90;;;18.60;99.90;;;;;;4972660;28;20416;-85
2023/07/27 03:47:28;;;;;;;39.53;35.90;;;17.80;99.90;;;;;;4955808;28;20050;-85
2023/07/27 03:49:54;;;;;;;40.17;36.25;;;18.40;99.90;;;;;;4970560;28;20047;-85
2023/07/27 03:52:19;;;;;;;39.78;35.95;;;17.80;99.90;;;;;;4955559;28;20066;-85
2023/07/27 03:54:45;;;;;;;39.58;35.75;;;18.60;99.90;;;;;;4964282;28;20045;-86
2023/07/27 03:57:10;;;;;;;39.05;35.55;;;18.60;99.90;;;;;;4963113;28;20733;-85
2023/07/27 03:59:36;;;;;;;39.75;35.95;;;18.20;99.90;;;;;;4964956;28;20065;-86
2023/07/27 04:02:02;;;;;;;39.85;36.15;;;18.50;99.90;;;;;;4959288;28;20051;-86
2023/07/27 04:04:28;;;;;;;41.05;37.15;;;18.40;99.90;;;;;;4937157;29;20051;-86
2023/07/27 04:06:53;;;;;;;41.13;37.20;;;18.00;99.90;;;;;;4942891;29;20047;-86
2023/07/27 04:09:19;;;;;;;41.97;38.08;;;17.70;99.90;;;;;;4955495;28;20400;-86
2023/07/27 04:11:44;;;;;;;42.45;38.28;;;18.30;99.90;;;;;;4957178;28;20150;-86
2023/07/27 04:14:10;;;;;;;41.75;37.92;;;19.80;99.90;;;;;;4948808;28;20448;-86
2023/07/27 04:16:36;;;;;;;42.28;38.35;;;17.60;99.90;;;;;;4966054;28;20039;-86
2023/07/27 04:19:02;;;;;;;42.50;38.60;;;18.90;99.90;;;;;;4949830;28;20469;-86
2023/07/27 04:21:27;;;;;;;42.58;38.25;;;18.40;99.90;;;;;;4952350;28;20489;-86
2023/07/27 04:23:54;;;;;;;42.45;38.58;;;18.30;99.90;;;;;;4959654;28;20059;-86
2023/07/27 04:26:19;;;;;;;41.40;37.80;;;17.80;99.90;;;;;;4955640;28;20039;-86
2023/07/27 04:28:45;;;;;;;41.35;37.63;;;17.80;99.90;;;;;;4956521;28;20065;-87
2023/07/27 04:31:11;;;;;;;42.40;38.50;;;18.20;99.90;;;;;;4953394;28;20081;-86
2023/07/27 04:33:36;;;;;;;43.30;39.10;;;18.30;99.90;;;;;;4953121;28;20071;-86
2023/07/27 04:36:02;;;;;;;42.20;38.58;;;17.80;99.90;;;;;;4944635;28;20405;-86
2023/07/27 04:38:28;;;;;;;41.90;38.00;;;17.90;99.90;;;;;;4957463;28;20046;-86
2023/07/27 04:40:54;;;;;;;42.40;38.58;;;17.60;99.90;;;;;;4964349;28;20054;-86
2023/07/27 04:43:20;;;;;;;41.65;38.00;;;17.50;99.90;;;;;;4965198;28;20437;-86
2023/07/27 04:45:45;;;;;;;41.80;38.10;;;18.20;99.90;;;;;;4956140;28;20517;-86
2023/07/27 04:48:11;;;;;;;42.10;38.35;;;17.60;99.90;;;;;;4950989;28;20046;-86
2023/07/27 04:50:36;;;;;;;42.63;38.15;;;18.20;99.90;;;;;;4970474;28;20375;-86
2023/07/27 04:53:02;;;;;;;42.20;38.38;;;17.80;99.90;;;;;;4963299;28;20125;-86
2023/07/27 04:55:27;;;;;;;42.13;38.53;;;19.70;99.90;;;;;;4963939;28;20027;-86
2023/07/27 04:57:53;;;;;;;40.75;37.25;;;18.20;99.90;;;;;;4945393;29;20462;-86
2023/07/27 05:00:19;;;;;;;42.55;38.70;;;18.50;99.90;;;;;;4963156;28;20049;-86
2023/07/27 05:02:44;;;;;;;40.40;37.00;;;17.60;99.90;;;;;;4953863;28;20039;-86
2023/07/27 05:05:10;;;;;;;40.33;36.60;;;18.00;99.90;;;;;;4950450;28;20093;-86
2023/07/27 05:07:35;;;;;;;40.50;36.90;;;18.20;99.90;;;;;;4947741;28;20093;-86
2023/07/27 05:10:01;;;;;;;40.17;36.22;;;17.60;99.90;;;;;;4964011;28;20035;-86
2023/07/27 05:12:28;;;;;;;40.35;36.83;;;18.40;99.90;;;;;;4952281;28;20531;-86
2023/07/27 05:14:53;;;;;;;42.95;38.80;;;17.40;99.90;;;;;;4945813;29;20098;-86
2023/07/27 05:17:19;;;;;;;40.15;36.55;;;18.20;99.90;;;;;;4938274;29;20481;-86
2023/07/27 05:19:45;;;;;;;41.50;37.50;;;18.60;99.90;;;;;;4983933;28;20038;-86
2023/07/27 05:22:10;;;;;;;41.10;37.40;;;17.60;99.90;;;;;;4960703;28;20046;-85
2023/07/27 05:24:37;;;;;;;43.53;39.35;;;18.30;99.90;;;;;;4952203;28;20412;-86
2023/07/27 05:27:03;;;;;;;43.92;39.42;;;18.40;99.90;;;;;;4966542;28;20066;-86
2023/07/27 05:29:28;;;;;;;43.55;39.55;;;18.10;99.90;;;;;;4945046;28;20039;-86
2023/07/27 05:31:54;;;;;;;44.63;40.33;;;17.60;99.90;;;;;;4963543;28;20127;-86
2023/07/27 05:34:20;;;;;;;44.55;40.38;;;18.70;99.90;;;;;;4954196;28;20031;-86
2023/07/27 05:36:45;;;;;;;45.90;41.63;;;19.10;99.90;;;;;;4952023;28;20479;-85
2023/07/27 05:39:11;;;;;;;44.65;40.45;;;17.50;99.90;;;;;;4954432;28;20089;-86
2023/07/27 05:41:36;;;;;;;46.78;41.88;;;19.30;99.90;;;;;;4970032;28;20492;-86
2023/07/27 05:44:02;;;;;;;44.63;40.33;;;18.60;99.90;;;;;;4947442;28;20455;-85
2023/07/27 05:46:28;;;;;;;43.63;39.28;;;17.60;99.90;;;;;;4956249;28;20043;-86
2023/07/27 05:48:54;;;;;;;45.13;40.83;;;18.50;99.90;;;;;;4940771;28;20591;-86
2023/07/27 05:51:19;;;;;;;43.80;39.65;;;19.20;99.90;;;;;;4974547;28;20047;-86
2023/07/27 05:53:45;;;;;;;43.58;39.47;;;17.50;99.90;;;;;;4943151;29;20039;-86
2023/07/27 05:56:10;;;;;;;41.70;38.00;;;17.40;99.90;;;;;;4955190;28;20054;-86
2023/07/27 05:58:36;;;;;;;43.40;39.22;;;18.20;99.90;;;;;;4952375;28;20043;-86
2023/07/27 06:01:03;;;;;;;43.05;39.10;;;18.40;99.90;;;;;;4951197;28;20480;-86
2023/07/27 06:03:29;;;;;;;42.95;38.88;;;18.40;99.90;;;;;;4942919;28;20080;-86
2023/07/27 06:05:55;;;;;;;43.45;39.45;;;17.80;99.90;;;;;;4946923;28;20042;-86
2023/07/27 06:08:21;;;;;;;40.70;37.10;;;17.80;99.90;;;;;;4941423;28;20425;-86
2023/07/27 06:10:46;;;;;;;42.17;38.47;;;18.40;99.90;;;;;;4963567;28;20493;-86
2023/07/27 06:13:12;;;;;;;41.08;37.28;;;17.70;99.90;;;;;;4963389;28;20039;-86
2023/07/27 06:15:38;;;;;;;41.85;37.90;;;18.10;99.90;;;;;;4939828;28;20035;-84
2023/07/27 06:18:04;;;;;;;39.85;36.35;;;18.90;99.90;;;;;;4963000;28;20098;-85
2023/07/27 06:20:29;;;;;;;42.40;38.70;;;18.50;99.90;;;;;;4940545;28;20496;-84
2023/07/27 06:22:55;;;;;;;39.03;35.65;;;18.90;99.90;;;;;;4948651;28;20137;-83
2023/07/27 06:25:21;;;;;;;38.30;35.00;;;17.40;99.90;;;;;;4961586;28;20036;-86
2023/07/27 06:27:47;;;;;;;37.97;34.70;;;18.40;99.90;;;;;;4942131;28;20030;-85
2023/07/27 06:30:15;;;;;;;37.20;34.03;;;17.20;99.90;;;;;;4966088;28;20045;-85
2023/07/27 06:32:40;;;;;;;37.25;34.15;;;18.40;99.90;;;;;;4971152;28;20042;-86
2023/07/27 06:35:06;;;;;;;36.55;33.55;;;17.20;99.90;;;;;;4958058;28;20042;-86
2023/07/27 06:37:32;;;;;;;35.35;32.38;;;17.90;99.90;;;;;;4964098;28;20042;-85
2023/07/27 06:39:58;;;;;;;34.20;31.55;;;18.10;99.90;;;;;;4945180;28;20561;-85
2023/07/27 06:42:25;;;;;;;35.47;32.53;;;17.40;99.90;;;;;;4943610;29;20039;-86
2023/07/27 06:44:50;;;;;;;35.58;32.58;;;18.70;99.90;;;;;;4941547;28;20054;-87
2023/07/27 06:47:16;;;;;;;37.08;34.13;;;18.30;99.90;;;;;;4977317;28;20074;-86
2023/07/27 06:49:42;;;;;;;37.13;34.13;;;18.80;99.90;;;;;;4952268;28;20398;-87
2023/07/27 06:52:09;;;;;;;37.85;34.67;;;18.50;99.90;;;;;;4971828;28;20038;-86
2023/07/27 06:54:35;;;;;;;40.00;36.60;;;17.50;99.90;;;;;;4976218;28;20039;-86
2023/07/27 06:57:03;;;;;;;36.83;33.72;;;18.90;99.90;;;;;;4952609;28;20034;-87
2023/07/27 06:59:29;;;;;;;38.95;35.67;;;17.70;99.90;;;;;;4959547;28;20476;-87
2023/07/27 07:01:57;;;;;;;39.15;35.80;;;18.40;99.90;;;;;;4961151;28;20093;-86
2023/07/27 07:04:22;;;;;;;38.15;34.95;;;18.90;99.90;;;;;;4947080;28;20183;-88
2023/07/27 07:06:48;;;;;;;37.40;34.17;;;18.50;99.90;;;;;;4968285;28;20047;-86
2023/07/27 07:09:14;;;;;;;37.10;33.88;;;17.70;99.90;;;;;;4967427;28;20027;-87
2023/07/27 07:11:39;;;;;;;37.22;33.92;;;17.80;99.90;;;;;;4959709;28;20057;-87
2023/07/27 07:14:05;;;;;;;36.83;33.53;;;18.60;99.90;;;;;;4958044;28;20042;-87
2023/07/27 07:16:31;;;;;;;35.97;32.88;;;17.80;99.90;;;;;;4951791;28;20442;-86
2023/07/27 07:18:56;;;;;;;35.65;32.65;;;17.90;99.90;;;;;;4946100;28;20041;-87
2023/07/27 07:21:22;;;;;;;37.67;34.47;;;18.00;99.90;;;;;;4951148;28;20093;-87
2023/07/27 07:23:47;;;;;;;34.45;31.80;;;17.80;99.90;;;;;;4987670;22;20027;-61
2023/07/27 07:26:14;;;;;;;35.00;32.20;;;19.00;99.90;;;;;;4970184;28;20047;-60
2023/07/27 07:28:39;;;;;;;33.47;30.67;;;19.70;99.90;;;;;;4970101;28;20046;-60
2023/07/27 07:31:06;;;;;;;35.45;32.55;;;19.20;99.90;;;;;;4969072;28;20034;-61
2023/07/27 07:33:31;;;;;;;33.30;30.70;;;18.10;99.90;;;;;;4969040;28;20074;-61
2023/07/27 07:35:57;;;;;;;35.10;32.13;;;18.40;99.90;;;;;;4965967;28;20041;-60
2023/07/27 07:38:22;;;;;;;33.78;31.13;;;18.10;99.90;;;;;;4969911;28;20424;-60
2023/07/27 07:40:48;;;;;;;35.20;32.30;;;17.70;99.90;;;;;;4971614;28;20042;-60
2023/07/27 07:43:13;;;;;;;34.50;31.83;;;18.00;99.90;;;;;;4968701;28;20566;-61
2023/07/27 07:45:39;;;;;;;34.28;31.55;;;18.30;99.90;;;;;;4965134;28;20059;-61
2023/07/27 07:48:05;;;;;;;33.50;30.80;;;19.30;99.90;;;;;;4968827;28;20046;-61
2023/07/27 07:50:30;;;;;;;34.60;31.80;;;18.80;99.90;;;;;;4960049;28;20066;-61
2023/07/27 07:52:56;;;;;;;32.55;29.95;;;18.20;99.90;;;;;;4969389;28;20090;-60
2023/07/27 07:55:21;;;;;;;32.90;30.20;;;17.80;99.90;;;;;;4969320;28;20535;-60
2023/07/27 07:57:47;;;;;;;34.17;31.27;;;18.60;99.90;;;;;;4971024;28;20392;-60
2023/07/27 08:00:13;;;;;;;33.15;30.48;;;19.40;99.90;;;;;;4963244;28;20531;-61
2023/07/27 08:02:38;;;;;;;34.05;31.35;;;19.10;99.90;;;;;;4980077;28;20617;-60
2023/07/27 08:05:04;;;;;;;33.88;31.17;;;19.30;99.90;;;;;;4965694;28;20503;-60
2023/07/27 08:07:30;;;;;;;34.72;32.03;;;18.70;99.90;;;;;;4965947;28;20045;-60
2023/07/27 08:09:56;;;;;;;34.45;31.77;;;17.90;99.90;;;;;;4963392;28;20047;-60
2023/07/27 08:12:22;;;;;;;33.42;30.80;;;18.50;99.90;;;;;;4966662;28;20543;-61
2023/07/27 08:14:47;;;;;;;35.55;32.60;;;18.00;99.90;;;;;;4967509;28;20035;-60
2023/07/27 08:17:13;;;;;;;33.83;30.92;;;18.50;99.90;;;;;;4970524;28;20327;-61
2023/07/27 08:19:39;;;;;;;35.08;32.38;;;19.60;99.90;;;;;;4968272;28;20065;-61
2023/07/27 08:22:05;;;;;;;35.20;32.30;;;19.60;99.90;;;;;;4969518;28;20379;-60
2023/07/27 08:24:31;;;;;;;36.23;33.33;;;18.60;99.90;;;;;;4905098;28;1092266;-60
2023/07/27 08:26:56;;;;;;;36.40;33.30;;;19.60;99.90;;;;;;4949584;28;20307;-60
2023/07/27 08:29:22;;;;;;;35.08;32.28;;;18.90;99.90;;;;;;4950975;28;20133;-60
2023/07/27 08:31:47;;;;;;;34.33;31.58;;;19.60;99.90;;;;;;4952317;28;20035;-60
2023/07/27 08:34:13;;;;;;;35.40;32.63;;;19.40;99.90;;;;;;4951316;28;20038;-61
2023/07/27 08:36:38;;;;;;;33.85;31.15;;;18.30;99.90;;;;;;4946052;28;20391;-60
2023/07/27 08:39:04;;;;;;;33.72;31.00;;;19.70;99.90;;;;;;4950189;28;20452;-60
2023/07/27 08:41:30;;;;;;;32.88;30.38;;;19.50;99.90;;;;;;4956045;28;20062;-60
2023/07/27 08:43:57;;;;;;;34.13;31.52;;;18.70;99.90;;;;;;4952006;28;20489;-60
2023/07/27 08:46:23;;;;;;;34.92;32.13;;;20.10;99.90;;;;;;4949261;28;20546;-60
2023/07/27 08:48:49;;;;;;;34.60;31.73;;;19.80;99.90;;;;;;4948974;28;20074;-60
2023/07/27 08:51:15;;;;;;;35.22;32.42;;;19.70;99.90;;;;;;4951585;28;20035;-61
2023/07/27 08:53:41;;;;;;;34.28;31.65;;;19.90;99.90;;;;;;4950029;28;20054;-61
2023/07/27 08:56:06;;;;;;;34.08;31.35;;;18.30;99.90;;;;;;4949842;28;20031;-61
2023/07/27 08:58:32;;;;;;;32.85;30.35;;;18.40;99.90;;;;;;4950109;28;20039;-61
2023/07/27 09:00:57;;;;;;;33.95;31.35;;;20.00;99.90;;;;;;4949151;28;20489;-60
2023/07/27 09:03:23;;;;;;;33.08;30.15;;;18.80;99.90;;;;;;4949969;28;20092;-61
2023/07/27 09:05:57;;;;;;;33.28;30.67;;;18.50;99.90;;;;;;4950133;29;20067;-60
2023/07/27 09:08:28;;;;;;;31.65;29.15;;;20.10;99.90;;;;;;4950740;28;20043;-60
2023/07/27 09:10:55;;;;;;;32.95;30.35;;;18.40;99.90;;;;;;4957286;28;20050;-60
2023/07/27 09:13:20;;;;;;;30.40;28.10;;;18.40;99.90;;;;;;4961575;28;20039;-60
2023/07/27 09:15:46;;;;;;;31.65;29.15;;;19.00;99.90;;;;;;4962249;28;20114;-61
2023/07/27 09:18:13;;;;;;;30.75;28.38;;;18.60;99.90;;;;;;4957345;28;20087;-61
2023/07/27 09:20:42;;;;;;;31.40;29.00;;;20.20;99.90;;;;;;4949002;28;20042;-60
2023/07/27 09:23:08;;;;;;;31.17;28.77;;;20.30;99.90;;;;;;4952940;28;20039;-61
2023/07/27 09:25:33;;;;;;;30.73;28.40;;;20.20;99.90;;;;;;4946000;28;20059;-61
2023/07/27 09:27:59;;;;;;;30.83;28.52;;;19.20;99.90;;;;;;4943072;28;20538;-60
2023/07/27 09:30:25;;;;;;;30.38;28.08;;;20.00;99.90;;;;;;4951815;28;20040;-61
2023/07/27 09:32:52;;;;;;;29.90;27.70;;;19.00;99.90;;;;;;4949782;28;20058;-60
2023/07/27 09:35:19;;;;;;;30.42;28.13;;;19.70;99.90;;;;;;4957040;28;20046;-61
2023/07/27 09:37:50;;;;;;;29.13;26.83;;;19.10;99.90;;;;;;4953555;28;20102;-60
2023/07/27 09:40:19;;;;;;;27.90;25.80;;;19.20;99.90;;;;;;4948041;28;20074;-61
2023/07/27 09:42:45;;;;;;;28.48;26.38;;;19.60;99.90;;;;;;4948435;28;20050;-61
2023/07/27 09:45:12;;;;;;;30.25;27.95;;;19.30;99.90;;;;;;4947421;28;20085;-60
2023/07/27 09:47:38;;;;;;;28.65;26.55;;;19.10;99.90;;;;;;4949611;28;20039;-61
2023/07/27 09:50:05;;;;;;;29.55;27.45;;;19.00;99.90;;;;;;4945823;28;20055;-61
2023/07/27 09:52:31;;;;;;;29.35;27.15;;;19.80;99.90;;;;;;4943952;28;20041;-61
2023/07/27 09:54:58;;;;;;;28.50;26.40;;;19.30;99.90;;;;;;4938561;29;20043;-61
2023/07/27 09:57:25;;;;;;;27.45;25.38;;;19.60;99.90;;;;;;4947394;28;20125;-61
2023/07/27 09:59:51;;;;;;;27.65;25.65;;;20.60;99.90;;;;;;4948101;28;20043;-61
2023/07/27 10:02:17;;;;;;;28.45;26.45;;;20.10;99.90;;;;;;4950710;28;20039;-61
2023/07/27 10:04:46;;;;;;;28.48;26.38;;;19.70;99.90;;;;;;4942311;28;20040;-61
2023/07/27 10:07:12;;;;;;;27.35;25.45;;;21.80;99.90;;;;;;4950875;28;20050;-61
2023/07/27 10:09:38;;;;;;;26.33;24.52;;;20.90;99.90;;;;;;4963261;28;20185;-61
2023/07/27 10:12:04;;;;;;;25.42;23.63;;;19.80;99.90;;;;;;4950723;28;20150;-61
2023/07/27 10:14:31;;;;;;;25.63;23.85;;;21.30;99.90;;;;;;4951473;28;20039;-61
2023/07/27 10:17:07;;;;;;;25.45;23.75;;;21.00;99.90;;;;;;4949895;28;20567;-61
2023/07/27 10:19:41;;;;;;;;;;;20.60;99.90;;;;;;4950523;28;20059;-61
2023/07/27 10:22:17;;;;;;;27.23;25.33;;;21.80;99.90;;;;;;4959701;28;19922;-61
2023/07/27 10:24:50;;;;;;;;;;;21.20;99.90;;;;;;4954106;28;20063;-61
2023/07/27 10:27:18;;;;;;;25.40;23.63;;;22.10;99.90;;;;;;4952360;28;19929;-61
2023/07/27 10:30:08;;;;;;;26.88;24.98;;;21.40;99.90;;;;;;4952515;28;20035;-61
2023/07/27 10:32:35;;;;;;;26.73;24.92;;;21.40;99.90;;;;;;4953527;28;20043;-61
2023/07/27 10:35:06;;;;;;;26.42;24.60;;;21.80;99.90;;;;;;4953949;28;20131;-61
2023/07/27 10:37:52;;;;;;;26.95;25.05;;;20.30;99.90;;;;;;4946585;28;20043;-61
2023/07/27 10:40:30;;;;;;;28.67;26.67;;;20.30;99.90;;;;;;4953294;28;20090;-61
2023/07/27 10:42:57;;;;;;;29.02;26.92;;;22.50;99.90;;;;;;4952953;29;20047;-61
2023/07/27 10:45:26;;;;;;;27.80;25.70;;;22.40;99.90;;;;;;4952710;29;20064;-61
2023/07/27 10:47:56;;;;;;;27.80;25.80;;;21.30;99.90;;;;;;4952231;28;20051;-61
2023/07/27 10:50:23;;;;;;;27.80;25.73;;;21.20;99.90;;;;;;4950343;28;20521;-61
2023/07/27 10:52:52;;;;;;;27.15;25.25;;;22.90;99.90;;;;;;4952689;28;20050;-61
2023/07/27 10:55:19;;;;;;;28.42;26.33;;;22.90;99.90;;;;;;4954364;28;20081;-61
2023/07/27 10:57:46;;;;;;;28.20;26.10;;;22.90;99.90;;;;;;4947959;28;20047;-62
2023/07/27 11:00:12;;;;;;;28.98;26.67;;;21.30;99.90;;;;;;4947375;28;20039;-61
2023/07/27 11:02:41;;;;;;;28.30;26.10;;;21.50;99.90;;;;;;4956885;28;20122;-61
2023/07/27 11:05:08;;;;;;;28.58;26.58;;;22.00;99.90;;;;;;4945905;28;20408;-61
2023/07/27 11:07:39;;;;;;;28.40;26.30;;;21.10;99.90;;;;;;4952766;28;20066;-61
2023/07/27 11:10:09;;;;;;;27.45;25.45;;;22.40;99.90;;;;;;4952038;28;20508;-62
2023/07/27 11:12:51;;;;;;;27.08;25.08;;;23.10;99.90;;;;;;4952278;28;20046;-61
2023/07/27 11:15:21;;;;;;;26.88;24.98;;;22.30;99.90;;;;;;4952510;28;20027;-61
2023/07/27 11:17:49;;;;;;;25.67;23.83;;;23.10;99.90;;;;;;4956953;28;20123;-61
2023/07/27 11:20:18;;;;;;;25.00;23.20;;;22.90;99.90;;;;;;4951085;28;20043;-61
2023/07/27 11:22:44;;;;;;;26.23;24.40;;;22.60;99.90;;;;;;4956064;28;20227;-61
2023/07/27 11:25:10;;;;;;;26.85;24.85;;;21.40;99.90;;;;;;4963352;28;20062;-61
2023/07/27 11:27:37;;;;;;;25.80;23.90;;;21.20;99.90;;;;;;4950242;28;20421;-61
2023/07/27 11:30:06;;;;;;;26.17;24.00;;;23.30;99.90;;;;;;4952942;28;20497;-61
2023/07/27 11:32:32;;;;;;;25.55;23.73;;;22.90;99.90;;;;;;4948682;28;20046;-61
2023/07/27 11:34:57;;;;;;;25.90;23.80;;;23.30;99.90;;;;;;4951499;28;20035;-61
2023/07/27 11:37:26;;;;;;;25.20;23.20;;;21.70;99.90;;;;;;4950618;28;20110;-60
2023/07/27 11:39:52;;;;;;;25.85;23.90;;;22.80;99.90;;;;;;4949506;28;20043;-61
2023/07/27 11:42:43;;;;;;;24.45;22.65;;;22.80;99.90;;;;;;4941764;28;20579;-61
2023/07/27 11:45:11;;;;;;;24.75;22.75;;;23.10;99.90;;;;;;4948358;28;20517;-61
2023/07/27 11:47:38;;;;;;;23.60;21.90;;;22.20;99.90;;;;;;4963439;28;20618;-61
2023/07/27 11:50:06;;;;;;;25.05;23.15;;;22.60;99.90;;;;;;4954803;28;20043;-61
2023/07/27 11:52:33;;;;;;;26.52;24.63;;;23.30;99.90;;;;;;4952906;28;20035;-61
2023/07/27 11:55:01;;;;;;;23.75;21.98;;;21.60;99.90;;;;;;4952771;28;20037;-61
2023/07/27 11:57:27;;;;;;;25.75;23.73;;;23.50;99.90;;;;;;4952729;28;20398;-62
2023/07/27 12:00:15;;;;;;;26.27;24.38;;;23.60;99.90;;;;;;4952856;28;20395;-61
2023/07/27 12:02:44;;;;;;;27.77;25.67;;;23.50;99.90;;;;;;4949129;29;20043;-61
2023/07/27 12:05:14;;;;;;;27.55;25.50;;;23.60;99.90;;;;;;4952513;28;20047;-62
2023/07/27 12:07:41;;;;;;;26.92;24.92;;;23.50;99.90;;;;;;4942556;28;20047;-62
2023/07/27 12:10:15;;;;;;;25.95;24.00;;;23.60;99.90;;;;;;4972167;28;20634;-61
2023/07/27 12:12:47;;;;;;;25.13;23.33;;;22.60;99.90;;;;;;4941572;29;20561;-62
2023/07/27 12:15:31;;;;;;;26.35;24.35;;;22.50;99.90;;;;;;4952885;29;20114;-61
2023/07/27 12:17:59;;;;;;;25.30;23.50;;;22.00;99.90;;;;;;4951854;28;20035;-61
2023/07/27 12:20:26;;;;;;;25.65;23.75;;;22.30;99.90;;;;;;4961704;28;20046;-61
2023/07/27 12:22:52;;;;;;;25.73;23.52;;;23.20;99.90;;;;;;4952932;28;20105;-61
2023/07/27 12:25:18;;;;;;;25.40;23.60;;;23.40;99.90;;;;;;4952076;28;20054;-61
2023/07/27 12:27:43;;;;;;;25.00;23.20;;;22.80;99.90;;;;;;4955461;28;20042;-61
2023/07/27 12:30:10;;;;;;;25.55;23.60;;;22.10;99.90;;;;;;4951699;28;20097;-62